Time;durP1;ratioP1;P1;durP2;ratioP2;P2;SDS_P1;SDS_P2;PMS_P1;PMS_P2;Temp;Humidity;BMP_temperature;BMP_pressure;BME280_temperature;BME280_humidity;BME280_pressure;Samples;Min_cycle;Max_cycle;Signal;HPM_P1;HPM_P2
2024/02/14 00:00:03;;;;;;;14.87;6.10;;;;;;;;;;5009841;28;20325;-91
2024/02/14 00:03:10;;;;;;;11.27;5.93;;;;;;;;;;5012129;28;20221;-91
2024/02/14 00:06:16;;;;;;;14.23;5.80;;;;;;;;;;5009524;28;20754;-91
2024/02/14 00:09:24;;;;;;;14.27;6.20;;;;;;;;;;5010586;28;20185;-90
2024/02/14 00:12:29;;;;;;;11.43;6.07;;;;;;;;;;5011523;28;20217;-90
2024/02/14 00:15:35;;;;;;;15.03;6.20;;;;;;;;;;5009951;28;20193;-90
2024/02/14 00:18:40;;;;;;;15.80;5.83;;;;;;;;;;5009604;28;20194;-89
2024/02/14 00:21:45;;;;;;;17.20;5.30;;;;;;;;;;5011280;28;20198;-90
2024/02/14 00:24:52;;;;;;;11.57;5.13;;;;;;;;;;5010442;28;20185;-89
2024/02/14 00:28:00;;;;;;;13.43;5.60;;;;;;;;;;5008298;28;20204;-92
2024/02/14 00:31:07;;;;;;;12.70;5.13;;;;;;;;;;5000488;28;20217;-90
2024/02/14 00:34:12;;;;;;;18.07;5.43;;;;;;;;;;5000520;28;20190;-89
2024/02/14 00:37:21;;;;;;;12.50;6.23;;;;;;;;;;5000167;28;20220;-89
2024/02/14 00:40:28;;;;;;;13.30;6.23;;;;;;;;;;5008000;28;20193;-90
2024/02/14 00:43:34;;;;;;;12.73;5.80;;;;;;;;;;5007205;28;20229;-91
2024/02/14 00:46:39;;;;;;;12.13;5.43;;;;;;;;;;4999810;28;20189;-90
2024/02/14 00:49:44;;;;;;;11.10;5.17;;;;;;;;;;5001440;28;20216;-89
2024/02/14 00:52:49;;;;;;;13.03;5.77;;;;;;;;;;5006610;28;20676;-92
2024/02/14 00:55:56;;;;;;;15.77;5.90;;;;;;;;;;5006973;28;20248;-91
2024/02/14 00:59:01;;;;;;;13.83;5.53;;;;;;;;;;5006956;28;20197;-92
2024/02/14 01:02:07;;;;;;;11.23;6.00;;;;;;;;;;4992246;28;20213;-91
2024/02/14 01:05:15;;;;;;;13.20;6.30;;;;;;;;;;5000801;28;20220;-90
2024/02/14 01:08:21;;;;;;;11.63;5.57;;;;;;;;;;4986757;28;20657;-90
2024/02/14 01:11:28;;;;;;;13.73;6.13;;;;;;;;;;4992347;28;20213;-89
2024/02/14 01:14:33;;;;;;;15.43;6.30;;;;;;;;;;4986889;28;20201;-91
2024/02/14 01:17:39;;;;;;;15.90;6.23;;;;;;;;;;4988168;28;20268;-92
2024/02/14 01:20:44;;;;;;;15.03;6.27;;;;;;;;;;4994158;28;20224;-89
2024/02/14 01:23:50;;;;;;;13.67;6.47;;;;;;;;;;5006424;28;20196;-90
2024/02/14 01:26:57;;;;;;;14.00;5.73;;;;;;;;;;5006328;28;20304;-88
2024/02/14 01:30:02;;;;;;;11.83;5.83;;;;;;;;;;5006628;28;20209;-89
2024/02/14 01:33:07;;;;;;;11.33;6.03;;;;;;;;;;5009091;28;20232;-90
2024/02/14 01:36:12;;;;;;;15.80;6.27;;;;;;;;;;5009335;28;20200;-91
2024/02/14 01:39:18;;;;;;;10.83;5.60;;;;;;;;;;5001396;28;20205;-91
2024/02/14 01:42:24;;;;;;;12.13;5.53;;;;;;;;;;5015209;28;20200;-88
2024/02/14 01:45:32;;;;;;;25.83;6.40;;;;;;;;;;5011419;28;20189;-90
2024/02/14 01:48:39;;;;;;;12.80;5.43;;;;;;;;;;5011862;28;20185;-92
2024/02/14 01:51:46;;;;;;;12.40;5.53;;;;;;;;;;5010338;28;20339;-91
2024/02/14 01:54:53;;;;;;;11.37;5.50;;;;;;;;;;5007460;28;20204;-89
2024/02/14 01:58:00;;;;;;;9.47;5.37;;;;;;;;;;5007181;28;20213;-91
2024/02/14 02:01:07;;;;;;;10.67;5.63;;;;;;;;;;5008165;28;20262;-89
2024/02/14 02:04:12;;;;;;;13.13;6.47;;;;;;;;;;5007561;28;20268;-90
2024/02/14 02:07:17;;;;;;;13.60;5.43;;;;;;;;;;4991834;28;20213;-92
2024/02/14 02:10:25;;;;;;;13.83;5.80;;;;;;;;;;5012660;28;20256;-89
2024/02/14 02:13:31;;;;;;;15.30;5.40;;;;;;;;;;5006114;28;20185;-91
2024/02/14 02:16:38;;;;;;;12.60;5.50;;;;;;;;;;5005150;28;20201;-91
2024/02/14 02:19:43;;;;;;;11.50;5.27;;;;;;;;;;4997880;28;20213;-90
2024/02/14 02:22:50;;;;;;;9.93;4.87;;;;;;;;;;4998646;28;20237;-92
2024/02/14 02:25:56;;;;;;;9.00;5.10;;;;;;;;;;5004677;28;20205;-89
2024/02/14 02:29:02;;;;;;;14.83;4.90;;;;;;;;;;5006158;28;20197;-91
2024/02/14 02:32:09;;;;;;;14.87;5.20;;;;;;;;;;5006426;28;20229;-90
2024/02/14 02:35:15;;;;;;;11.50;5.20;;;;;;;;;;4989239;28;20190;-92
2024/02/14 02:38:22;;;;;;;15.03;6.33;;;;;;;;;;4993056;28;20201;-91
2024/02/14 02:41:27;;;;;;;9.97;5.27;;;;;;;;;;5011536;28;20683;-91
2024/02/14 02:44:33;;;;;;;15.53;5.20;;;;;;;;;;5009629;28;20352;-90
2024/02/14 02:47:38;;;;;;;10.63;5.30;;;;;;;;;;5009462;28;20188;-91
2024/02/14 02:50:44;;;;;;;14.43;5.87;;;;;;;;;;5008510;28;20208;-88
2024/02/14 02:53:51;;;;;;;9.70;5.40;;;;;;;;;;5008925;28;20201;-90
2024/02/14 02:56:58;;;;;;;11.63;5.10;;;;;;;;;;5012665;28;20216;-90
2024/02/14 03:00:04;;;;;;;12.43;5.70;;;;;;;;;;5010760;28;20290;-89
2024/02/14 03:03:10;;;;;;;14.67;5.70;;;;;;;;;;5009610;28;20197;-90
2024/02/14 03:06:15;;;;;;;14.10;5.47;;;;;;;;;;5009521;28;20212;-89
2024/02/14 03:09:28;;;;;;;10.43;5.40;;;;;;;;;;4991132;28;20213;-90
2024/02/14 03:12:35;;;;;;;12.47;5.63;;;;;;;;;;4989262;28;20221;-89
2024/02/14 03:15:40;;;;;;;13.37;5.23;;;;;;;;;;5004076;28;20217;-90
2024/02/14 03:18:46;;;;;;;13.07;5.53;;;;;;;;;;4999534;28;20189;-91
2024/02/14 03:21:51;;;;;;;12.27;5.43;;;;;;;;;;5001860;28;20189;-90
2024/02/14 03:24:58;;;;;;;14.90;6.27;;;;;;;;;;4990730;28;20560;-90
2024/02/14 03:28:07;;;;;;;11.63;5.83;;;;;;;;;;4991047;28;20187;-91
2024/02/14 03:31:14;;;;;;;12.30;5.67;;;;;;;;;;5021381;28;20209;-91
2024/02/14 03:34:21;;;;;;;13.23;5.63;;;;;;;;;;5028284;28;20200;-90
2024/02/14 03:37:26;;;;;;;14.33;6.23;;;;;;;;;;5018457;28;20197;-91
2024/02/14 03:40:33;;;;;;;11.87;6.50;;;;;;;;;;5010051;28;20192;-90
2024/02/14 03:43:38;;;;;;;13.87;5.90;;;;;;;;;;4990339;28;20285;-90
2024/02/14 03:46:44;;;;;;;21.43;6.00;;;;;;;;;;4997358;28;20224;-89
2024/02/14 03:49:50;;;;;;;17.53;6.00;;;;;;;;;;4999652;28;20261;-90
2024/02/14 03:52:56;;;;;;;12.33;5.87;;;;;;;;;;5008674;28;20225;-90
2024/02/14 03:56:03;;;;;;;10.97;5.03;;;;;;;;;;5010958;28;20204;-90
2024/02/14 03:59:08;;;;;;;18.73;5.47;;;;;;;;;;4997712;28;20225;-90
2024/02/14 04:02:14;;;;;;;20.33;6.20;;;;;;;;;;5001986;28;20209;-90
2024/02/14 04:05:20;;;;;;;15.97;5.63;;;;;;;;;;5002611;28;20221;-88
2024/02/14 04:08:25;;;;;;;15.93;5.17;;;;;;;;;;5009181;28;20547;-91
2024/02/14 04:11:32;;;;;;;18.37;6.00;;;;;;;;;;5005269;28;20208;-91
2024/02/14 04:14:37;;;;;;;12.23;5.60;;;;;;;;;;5009574;28;20261;-92
2024/02/14 04:17:42;;;;;;;12.63;5.47;;;;;;;;;;5008838;28;20252;-90
2024/02/14 04:20:48;;;;;;;15.10;5.50;;;;;;;;;;4999724;28;20214;-92
2024/02/14 04:23:55;;;;;;;11.90;5.73;;;;;;;;;;5003149;28;20324;-91
2024/02/14 04:27:02;;;;;;;33.77;5.93;;;;;;;;;;4990878;28;20217;-90
2024/02/14 04:30:08;;;;;;;11.57;6.43;;;;;;;;;;5005991;28;20252;-91
2024/02/14 04:33:14;;;;;;;21.77;5.93;;;;;;;;;;5009075;28;20343;-90
2024/02/14 04:36:19;;;;;;;12.17;5.23;;;;;;;;;;5005842;28;20269;-91
2024/02/14 04:39:25;;;;;;;15.40;5.47;;;;;;;;;;5009278;28;20173;-89
2024/02/14 04:42:34;;;;;;;15.33;5.50;;;;;;;;;;5004162;28;20217;-90
2024/02/14 04:45:39;;;;;;;11.93;5.33;;;;;;;;;;5002508;28;20569;-90
2024/02/14 04:48:44;;;;;;;13.30;5.30;;;;;;;;;;5006613;28;20208;-89
2024/02/14 04:51:50;;;;;;;21.47;5.90;;;;;;;;;;5007270;28;20552;-91
2024/02/14 04:54:56;;;;;;;15.93;5.07;;;;;;;;;;4997920;28;20216;-89
2024/02/14 04:58:04;;;;;;;42.60;7.30;;;;;;;;;;5009600;28;20227;-89
2024/02/14 05:01:10;;;;;;;15.30;4.77;;;;;;;;;;5007397;28;20238;-91
2024/02/14 05:04:16;;;;;;;22.20;5.70;;;;;;;;;;5008900;28;20204;-92
2024/02/14 05:07:21;;;;;;;17.27;4.77;;;;;;;;;;5009891;28;20257;-91
2024/02/14 05:10:27;;;;;;;13.23;5.20;;;;;;;;;;5012596;28;20183;-91
2024/02/14 05:13:37;;;;;;;14.97;5.27;;;;;;;;;;5021268;28;20219;-90
2024/02/14 05:16:43;;;;;;;11.53;5.50;;;;;;;;;;5008913;28;20185;-90
2024/02/14 05:19:48;;;;;;;11.30;4.97;;;;;;;;;;5007815;28;20193;-89
2024/02/14 05:22:54;;;;;;;9.60;5.43;;;;;;;;;;5006039;28;20208;-87
2024/02/14 05:25:59;;;;;;;11.57;5.80;;;;;;;;;;4989272;28;20263;-92
2024/02/14 05:29:14;;;;;;;17.83;5.60;;;;;;;;;;4988579;28;20193;-90
2024/02/14 05:32:19;;;;;;;23.47;6.07;;;;;;;;;;4995622;28;20225;-92
2024/02/14 05:35:24;;;;;;;15.63;5.73;;;;;;;;;;5016566;28;20204;-92
2024/02/14 05:38:30;;;;;;;14.30;5.73;;;;;;;;;;5030241;28;20269;-90
2024/02/14 05:41:35;;;;;;;14.50;5.60;;;;;;;;;;5010146;28;20208;-91
2024/02/14 05:44:44;;;;;;;12.67;5.30;;;;;;;;;;4989690;28;20205;-90
2024/02/14 05:47:49;;;;;;;11.57;5.17;;;;;;;;;;5005738;28;20303;-90
2024/02/14 05:50:55;;;;;;;13.33;4.63;;;;;;;;;;5010309;28;20201;-91
2024/02/14 05:54:01;;;;;;;15.20;5.40;;;;;;;;;;5008407;28;20381;-88
2024/02/14 05:57:06;;;;;;;9.03;4.70;;;;;;;;;;5007684;28;20240;-90
2024/02/14 06:00:15;;;;;;;7.70;4.57;;;;;;;;;;5008508;28;20216;-92
2024/02/14 06:03:23;;;;;;;12.03;5.53;;;;;;;;;;4992977;28;20271;-90
2024/02/14 06:06:28;;;;;;;15.93;5.70;;;;;;;;;;5003499;28;20288;-90
2024/02/14 06:09:37;;;;;;;10.40;4.90;;;;;;;;;;5008204;28;20189;-89
2024/02/14 06:12:44;;;;;;;21.87;5.67;;;;;;;;;;4990674;28;20217;-90
2024/02/14 06:15:50;;;;;;;10.13;5.50;;;;;;;;;;4989594;28;20186;-90
2024/02/14 06:18:56;;;;;;;17.53;5.37;;;;;;;;;;4992860;28;20250;-91
2024/02/14 06:22:02;;;;;;;14.73;5.60;;;;;;;;;;5006922;28;20215;-90
2024/02/14 06:25:07;;;;;;;13.70;5.57;;;;;;;;;;5009951;28;20197;-90
2024/02/14 06:28:12;;;;;;;16.80;6.00;;;;;;;;;;5008690;28;20188;-90
2024/02/14 06:31:19;;;;;;;11.63;6.43;;;;;;;;;;5010498;28;20727;-90
2024/02/14 06:34:25;;;;;;;30.73;6.70;;;;;;;;;;5010719;28;20225;-90
2024/02/14 06:37:31;;;;;;;12.57;6.67;;;;;;;;;;5011531;28;20197;-91
2024/02/14 06:40:37;;;;;;;11.40;6.17;;;;;;;;;;5008013;28;20347;-88
2024/02/14 06:43:43;;;;;;;13.00;6.50;;;;;;;;;;5011937;28;20193;-89
2024/02/14 06:46:51;;;;;;;15.13;7.73;;;;;;;;;;5009851;28;20197;-94
2024/02/14 06:49:57;;;;;;;28.37;6.90;;;;;;;;;;5010036;28;20581;-90
2024/02/14 06:53:03;;;;;;;12.47;6.23;;;;;;;;;;5011857;28;20287;-92
2024/02/14 06:56:09;;;;;;;21.53;6.37;;;;;;;;;;5010210;28;20234;-90
2024/02/14 06:59:15;;;;;;;11.03;5.83;;;;;;;;;;5010552;28;20559;-91
2024/02/14 07:02:22;;;;;;;11.67;5.03;;;;;;;;;;5009108;28;20193;-92
2024/02/14 07:05:29;;;;;;;17.97;6.20;;;;;;;;;;5009181;28;20291;-89
2024/02/14 07:08:34;;;;;;;17.03;5.90;;;;;;;;;;5011468;28;20205;-91
2024/02/14 07:11:39;;;;;;;14.77;5.60;;;;;;;;;;5010445;28;20559;-90
2024/02/14 07:14:45;;;;;;;14.37;5.90;;;;;;;;;;5012930;28;20189;-92
2024/02/14 07:17:51;;;;;;;15.83;6.20;;;;;;;;;;5011388;28;20229;-91
2024/02/14 07:20:57;;;;;;;11.63;6.00;;;;;;;;;;5008087;28;20204;-89
2024/02/14 07:24:03;;;;;;;11.40;5.67;;;;;;;;;;5026140;28;20188;-91
2024/02/14 07:27:09;;;;;;;11.70;5.90;;;;;;;;;;5022754;28;20240;-90
2024/02/14 13:06:08;;;;;;;7.10;2.38;;;;;;;;;;5605487;23;20234;-90
2024/02/14 13:09:14;;;;;;;5.97;2.50;;;;;;;;;;5008043;28;20205;-91
2024/02/14 13:12:19;;;;;;;8.55;2.97;;;;;;;;;;4996858;28;20684;-90
2024/02/14 13:15:25;;;;;;;7.38;3.05;;;;;;;;;;5007513;28;20300;-88
2024/02/14 13:18:30;;;;;;;3.78;2.30;;;;;;;;;;5010130;28;20317;-91
2024/02/14 13:21:39;;;;;;;5.85;2.63;;;;;;;;;;5008783;28;20337;-92
2024/02/14 13:24:45;;;;;;;5.50;2.55;;;;;;;;;;4996644;28;20201;-90
2024/02/14 13:27:51;;;;;;;7.45;2.40;;;;;;;;;;5008727;28;20204;-91
2024/02/14 13:30:57;;;;;;;7.15;2.60;;;;;;;;;;5007800;28;20208;-89
2024/02/14 13:34:04;;;;;;;9.40;2.80;;;;;;;;;;5008229;28;20236;-91
2024/02/14 13:37:11;;;;;;;5.90;2.38;;;;;;;;;;5011382;28;20182;-92
2024/02/14 13:40:17;;;;;;;8.73;2.75;;;;;;;;;;5009252;28;20230;-90
2024/02/14 13:43:22;;;;;;;7.43;3.00;;;;;;;;;;5008572;28;20218;-91
2024/02/14 13:46:27;;;;;;;7.05;2.50;;;;;;;;;;5007781;28;20196;-89
2024/02/14 13:49:33;;;;;;;11.55;2.70;;;;;;;;;;5008445;28;20192;-90
2024/02/14 13:52:40;;;;;;;3.75;2.20;;;;;;;;;;5007918;28;20273;-91
2024/02/14 13:59:06;;;;;;;8.07;2.65;;;;;;;;;;5001786;28;20210;-90
2024/02/14 14:02:12;;;;;;;8.00;2.55;;;;;;;;;;5012364;28;20220;-90
2024/02/14 14:05:17;;;;;;;6.75;2.95;;;;;;;;;;5009768;28;20205;-89
2024/02/14 14:08:25;;;;;;;5.18;2.20;;;;;;;;;;5007642;28;20181;-91
2024/02/14 14:11:37;;;;;;;5.95;2.80;;;;;;;;;;4988967;28;20194;-90
2024/02/14 14:14:43;;;;;;;7.57;2.92;;;;;;;;;;4991513;28;20221;-90
2024/02/14 14:17:52;;;;;;;9.50;2.47;;;;;;;;;;5010195;28;20262;-89
2024/02/14 14:20:57;;;;;;;8.15;2.70;;;;;;;;;;5001497;28;20216;-91
2024/02/14 14:24:05;;;;;;;7.57;2.55;;;;;;;;;;5012668;28;20220;-89
2024/02/14 14:27:13;;;;;;;10.05;2.85;;;;;;;;;;5007301;28;20219;-91
2024/02/14 14:30:19;;;;;;;11.50;3.25;;;;;;;;;;4987528;28;20241;-90
2024/02/14 14:33:25;;;;;;;6.20;2.85;;;;;;;;;;4987985;28;20204;-91
2024/02/14 14:36:30;;;;;;;5.28;2.78;;;;;;;;;;4990656;28;20202;-89
2024/02/14 14:39:38;;;;;;;5.85;2.58;;;;;;;;;;4993324;28;20283;-88
2024/02/14 14:42:43;;;;;;;5.63;2.60;;;;;;;;;;5011133;28;20209;-91
2024/02/14 14:45:49;;;;;;;5.10;2.78;;;;;;;;;;5006068;28;20287;-90
2024/02/14 14:48:54;;;;;;;4.80;2.40;;;;;;;;;;5008782;28;20205;-92
2024/02/14 14:51:59;;;;;;;6.13;2.47;;;;;;;;;;5009435;28;20197;-91
2024/02/14 14:55:07;;;;;;;9.63;2.60;;;;;;;;;;5001141;28;20347;-90
2024/02/14 14:58:14;;;;;;;5.25;2.70;;;;;;;;;;4992974;28;20178;-90
2024/02/14 15:04:44;;;;;;;10.57;3.40;;;;;;;;;;5013545;28;20229;-90
2024/02/14 15:07:50;;;;;;;8.45;2.35;;;;;;;;;;5013764;28;20283;-91
2024/02/14 15:28:40;;;;;;;6.30;2.72;;;;;;;;;;5190322;23;20242;-90
2024/02/14 15:35:09;;;;;;;7.38;3.13;;;;;;;;;;5014505;28;20597;-89
2024/02/14 15:38:15;;;;;;;9.23;2.85;;;;;;;;;;4996725;28;20201;-90
2024/02/14 15:41:23;;;;;;;6.65;2.28;;;;;;;;;;5004634;28;20205;-93
2024/02/14 15:44:31;;;;;;;12.85;5.65;;;;;;;;;;5003754;28;20201;-90
2024/02/14 15:47:38;;;;;;;6.18;2.30;;;;;;;;;;5006156;28;20200;-89
2024/02/14 15:50:45;;;;;;;7.57;2.50;;;;;;;;;;5010048;28;20196;-89
2024/02/14 15:53:51;;;;;;;8.40;2.67;;;;;;;;;;5011142;28;20213;-88
2024/02/14 15:56:58;;;;;;;11.95;2.83;;;;;;;;;;5012035;28;20248;-88
2024/02/14 16:00:05;;;;;;;7.32;2.90;;;;;;;;;;5012086;28;20177;-89
2024/02/14 16:03:17;;;;;;;9.50;4.38;;;;;;;;;;5017120;28;20246;-90
2024/02/14 16:06:23;;;;;;;7.18;2.70;;;;;;;;;;5011924;28;20229;-90
2024/02/14 16:09:29;;;;;;;6.00;2.78;;;;;;;;;;5012517;28;20208;-90
2024/02/14 16:12:37;;;;;;;7.13;2.97;;;;;;;;;;5004815;28;20206;-90
2024/02/14 16:15:44;;;;;;;6.57;2.53;;;;;;;;;;5008491;28;20212;-87
2024/02/14 16:18:50;;;;;;;5.75;2.90;;;;;;;;;;5014627;28;20201;-89
2024/02/14 16:21:55;;;;;;;9.77;3.60;;;;;;;;;;5014256;28;20192;-89
2024/02/14 16:25:01;;;;;;;7.03;3.28;;;;;;;;;;5000446;28;20290;-89
2024/02/14 16:28:08;;;;;;;11.00;3.95;;;;;;;;;;4995176;28;20248;-89
2024/02/14 16:31:16;;;;;;;9.77;3.83;;;;;;;;;;5009311;28;20194;-90
2024/02/14 16:34:22;;;;;;;8.18;4.03;;;;;;;;;;5010395;28;20220;-90
2024/02/14 16:37:28;;;;;;;8.18;3.50;;;;;;;;;;5005676;28;20204;-89
2024/02/14 16:40:37;;;;;;;13.05;4.30;;;;;;;;;;5005282;28;20254;-90
2024/02/14 16:43:48;;;;;;;13.38;4.85;;;;;;;;;;5006617;28;20245;-89
2024/02/14 16:46:54;;;;;;;14.88;4.55;;;;;;;;;;5011355;28;20209;-89
2024/02/14 16:50:00;;;;;;;9.68;4.47;;;;;;;;;;5010153;28;20177;-89
2024/02/14 16:53:09;;;;;;;8.43;3.95;;;;;;;;;;5010448;28;20192;-92
2024/02/14 16:56:14;;;;;;;9.20;4.50;;;;;;;;;;4999626;28;20197;-89
2024/02/14 16:59:21;;;;;;;11.45;4.75;;;;;;;;;;5011885;28;20193;-91
2024/02/14 17:02:29;;;;;;;11.15;4.40;;;;;;;;;;5007802;28;20251;-89
2024/02/14 17:05:35;;;;;;;11.27;4.05;;;;;;;;;;5008038;28;20217;-90
2024/02/14 17:08:42;;;;;;;14.23;5.20;;;;;;;;;;5009195;28;20217;-92
2024/02/14 17:11:47;;;;;;;12.52;5.38;;;;;;;;;;5008396;28;20216;-94
2024/02/14 17:14:53;;;;;;;27.38;7.60;;;;;;;;;;4999543;28;20256;-90
2024/02/14 17:18:01;;;;;;;93.13;21.48;;;;;;;;;;5009017;28;20224;-88
2024/02/14 17:21:07;;;;;;;17.90;7.38;;;;;;;;;;5011416;28;20189;-91
2024/02/14 17:24:12;;;;;;;31.60;11.32;;;;;;;;;;5005249;28;20216;-90
2024/02/14 17:27:18;;;;;;;24.67;9.43;;;;;;;;;;4994720;28;20217;-94
2024/02/14 17:30:26;;;;;;;24.02;7.10;;;;;;;;;;5010482;28;20257;-88
2024/02/14 17:33:33;;;;;;;18.20;6.38;;;;;;;;;;5008495;28;20205;-90
2024/02/14 17:36:39;;;;;;;18.08;7.90;;;;;;;;;;5018355;28;20284;-91
2024/02/14 17:39:44;;;;;;;21.45;8.07;;;;;;;;;;5007323;28;20193;-90
2024/02/14 17:42:51;;;;;;;21.83;7.97;;;;;;;;;;5010869;28;20208;-90
2024/02/14 17:45:58;;;;;;;29.98;11.10;;;;;;;;;;5011442;28;20216;-90
2024/02/14 17:49:07;;;;;;;15.52;5.55;;;;;;;;;;4993235;28;20206;-93
2024/02/14 17:52:22;;;;;;;24.50;11.63;;;;;;;;;;5011272;28;20270;-90
2024/02/14 17:55:28;;;;;;;17.48;7.40;;;;;;;;;;5006362;28;20217;-93
2024/02/14 17:58:34;;;;;;;15.25;5.97;;;;;;;;;;4989240;28;20173;-89
2024/02/14 18:01:39;;;;;;;16.10;6.72;;;;;;;;;;5000313;28;20265;-91
2024/02/14 18:04:46;;;;;;;15.07;6.43;;;;;;;;;;5009033;28;20205;-90
2024/02/14 18:07:51;;;;;;;15.70;5.10;;;;;;;;;;4990430;28;20217;-89
2024/02/14 18:10:57;;;;;;;26.83;9.52;;;;;;;;;;4992881;28;20194;-91
2024/02/14 18:14:03;;;;;;;25.08;9.13;;;;;;;;;;5008910;28;20208;-90
2024/02/14 18:17:09;;;;;;;18.42;6.68;;;;;;;;;;5009326;28;20270;-92
2024/02/14 18:20:16;;;;;;;27.13;9.05;;;;;;;;;;4995817;28;20278;-90
2024/02/14 18:23:26;;;;;;;21.70;7.93;;;;;;;;;;4996568;28;20189;-89
2024/02/14 18:26:32;;;;;;;21.88;8.20;;;;;;;;;;4997786;28;20201;-91
2024/02/14 18:29:38;;;;;;;19.75;9.13;;;;;;;;;;5013448;28;20197;-90
2024/02/14 18:32:43;;;;;;;20.75;9.23;;;;;;;;;;5009598;28;20232;-91
2024/02/14 18:35:52;;;;;;;23.58;10.27;;;;;;;;;;4990792;28;20241;-92
2024/02/14 18:38:58;;;;;;;16.58;6.57;;;;;;;;;;4999630;28;20201;-91
2024/02/14 18:42:05;;;;;;;13.75;6.38;;;;;;;;;;4989853;28;20186;-92
2024/02/14 18:45:11;;;;;;;20.08;9.10;;;;;;;;;;5005547;28;20307;-91
2024/02/14 18:48:16;;;;;;;16.90;8.70;;;;;;;;;;5010588;28;20212;-92
2024/02/14 18:51:23;;;;;;;30.92;12.70;;;;;;;;;;5010062;28;20240;-93
2024/02/14 18:54:29;;;;;;;14.15;5.97;;;;;;;;;;4989049;28;20218;-91
2024/02/14 18:57:35;;;;;;;12.73;6.18;;;;;;;;;;5005144;28;20209;-91
2024/02/14 19:00:40;;;;;;;16.35;7.10;;;;;;;;;;5009758;28;20756;-89
2024/02/14 19:03:46;;;;;;;13.98;6.35;;;;;;;;;;5012213;28;20277;-89
2024/02/14 19:06:53;;;;;;;13.93;6.72;;;;;;;;;;5009437;28;20197;-89
2024/02/14 19:10:00;;;;;;;17.60;6.40;;;;;;;;;;5010112;28;20682;-91
2024/02/14 19:13:07;;;;;;;13.00;6.88;;;;;;;;;;5009058;28;20209;-91
2024/02/14 19:16:12;;;;;;;18.30;6.65;;;;;;;;;;5009290;28;20338;-92
2024/02/14 19:19:18;;;;;;;14.25;5.55;;;;;;;;;;5010277;28;20197;-92
2024/02/14 19:22:25;;;;;;;15.32;5.85;;;;;;;;;;5009089;28;20787;-89
2024/02/14 19:25:30;;;;;;;17.85;6.40;;;;;;;;;;5009093;28;20330;-91
2024/02/14 19:28:36;;;;;;;13.18;5.88;;;;;;;;;;5009594;28;20224;-90
2024/02/14 19:31:42;;;;;;;20.05;11.70;;;;;;;;;;5009953;28;20668;-91
2024/02/14 19:34:48;;;;;;;17.60;7.80;;;;;;;;;;5009804;28;20265;-91
2024/02/14 19:37:55;;;;;;;12.98;6.25;;;;;;;;;;5007844;28;20205;-90
2024/02/14 19:41:00;;;;;;;17.08;7.22;;;;;;;;;;5008540;28;20173;-92
2024/02/14 19:44:05;;;;;;;20.33;7.07;;;;;;;;;;5009855;28;20216;-92
2024/02/14 19:47:12;;;;;;;15.50;6.65;;;;;;;;;;5008613;28;20305;-91
2024/02/14 19:50:19;;;;;;;14.82;7.00;;;;;;;;;;5008661;28;20274;-91
2024/02/14 19:53:26;;;;;;;22.48;8.90;;;;;;;;;;5010794;28;20172;-89
2024/02/14 19:56:32;;;;;;;19.33;8.55;;;;;;;;;;5008070;28;20221;-90
2024/02/14 19:59:38;;;;;;;28.48;14.00;;;;;;;;;;5009635;28;20205;-89
2024/02/14 20:02:43;;;;;;;16.23;7.53;;;;;;;;;;5011292;28;20190;-90
2024/02/14 20:05:49;;;;;;;19.98;8.35;;;;;;;;;;5012214;28;20266;-91
2024/02/14 20:08:59;;;;;;;14.60;7.68;;;;;;;;;;5011413;28;20208;-89
2024/02/14 20:12:07;;;;;;;15.00;7.13;;;;;;;;;;5010426;28;20205;-90
2024/02/14 20:15:12;;;;;;;17.77;7.93;;;;;;;;;;5011455;28;20208;-87
2024/02/14 20:18:18;;;;;;;18.35;7.00;;;;;;;;;;5027993;28;20247;-91
2024/02/14 20:21:23;;;;;;;14.48;6.43;;;;;;;;;;5027201;28;20204;-89
2024/02/14 20:24:33;;;;;;;12.27;6.90;;;;;;;;;;4991031;28;20258;-88
2024/02/14 20:27:39;;;;;;;14.43;7.00;;;;;;;;;;4988066;28;20743;-88
2024/02/14 20:30:45;;;;;;;19.30;7.68;;;;;;;;;;4994201;28;20206;-85
2024/02/14 20:33:50;;;;;;;15.57;7.55;;;;;;;;;;5013203;28;20245;-87
2024/02/14 20:36:55;;;;;;;16.55;7.40;;;;;;;;;;5002506;28;20242;-86
2024/02/14 20:40:02;;;;;;;17.10;7.68;;;;;;;;;;5004759;28;20205;-91
2024/02/14 20:43:08;;;;;;;15.07;7.22;;;;;;;;;;5006222;28;20213;-89
2024/02/14 20:46:15;;;;;;;23.48;8.80;;;;;;;;;;5008016;28;20294;-91
2024/02/14 20:49:20;;;;;;;15.57;5.50;;;;;;;;;;5006735;28;20227;-91
2024/02/14 20:52:27;;;;;;;18.33;6.05;;;;;;;;;;4998199;28;20201;-90
2024/02/14 20:55:34;;;;;;;13.02;6.03;;;;;;;;;;4995837;28;20704;-88
2024/02/14 20:58:41;;;;;;;11.98;5.63;;;;;;;;;;5005380;28;20238;-92
2024/02/14 21:01:47;;;;;;;15.05;6.22;;;;;;;;;;5010550;28;20224;-91
2024/02/14 21:04:52;;;;;;;13.60;5.93;;;;;;;;;;5009930;28;20725;-89
2024/02/14 21:07:58;;;;;;;14.77;5.72;;;;;;;;;;4991188;28;20185;-90
2024/02/14 21:11:05;;;;;;;11.70;5.75;;;;;;;;;;5008407;28;20216;-91
2024/02/14 21:14:11;;;;;;;15.35;6.13;;;;;;;;;;5011176;28;20252;-90
2024/02/14 21:17:17;;;;;;;14.55;6.60;;;;;;;;;;5006480;28;20664;-89
2024/02/14 21:20:23;;;;;;;13.65;6.43;;;;;;;;;;5009645;28;20704;-89
2024/02/14 21:23:28;;;;;;;12.10;6.25;;;;;;;;;;5014424;28;20227;-91
2024/02/14 21:26:34;;;;;;;15.18;8.00;;;;;;;;;;4991273;28;20197;-91
2024/02/14 21:29:40;;;;;;;14.05;6.55;;;;;;;;;;5009418;28;20193;-91
2024/02/14 21:32:45;;;;;;;17.60;6.70;;;;;;;;;;5000959;28;20255;-91
2024/02/14 21:35:52;;;;;;;19.08;7.13;;;;;;;;;;5005577;28;20236;-91
2024/02/14 21:39:03;;;;;;;13.98;7.38;;;;;;;;;;5006671;28;20193;-91
2024/02/14 21:42:10;;;;;;;18.40;7.82;;;;;;;;;;5005624;28;20217;-92
2024/02/14 21:45:16;;;;;;;22.92;9.50;;;;;;;;;;4986623;28;20193;-94
2024/02/14 21:48:21;;;;;;;18.02;8.45;;;;;;;;;;4992648;28;20201;-89
2024/02/14 21:51:28;;;;;;;22.15;8.27;;;;;;;;;;5005628;28;20173;-90
2024/02/14 21:54:33;;;;;;;19.88;8.48;;;;;;;;;;5005968;28;20205;-88
2024/02/14 21:57:41;;;;;;;20.98;8.98;;;;;;;;;;5013119;28;20197;-90
2024/02/14 22:00:46;;;;;;;20.00;8.70;;;;;;;;;;5004503;28;20228;-91
2024/02/14 22:03:52;;;;;;;22.33;7.40;;;;;;;;;;5002553;28;20664;-91
2024/02/14 22:06:56;;;;;;;16.65;7.28;;;;;;;;;;5019577;28;20212;-91
2024/02/14 22:10:05;;;;;;;15.73;6.38;;;;;;;;;;5008494;28;20193;-90
2024/02/14 22:13:12;;;;;;;13.00;5.85;;;;;;;;;;4999668;28;20828;-89
2024/02/14 22:16:18;;;;;;;14.63;5.25;;;;;;;;;;5019902;28;20231;-91
2024/02/14 22:19:26;;;;;;;13.23;5.22;;;;;;;;;;5028448;28;20231;-91
2024/02/14 22:22:34;;;;;;;13.35;6.00;;;;;;;;;;5028781;28;20184;-89
2024/02/14 22:25:40;;;;;;;12.32;5.53;;;;;;;;;;5029431;28;20249;-91
2024/02/14 22:28:47;;;;;;;17.02;6.38;;;;;;;;;;4995134;28;20240;-91
2024/02/14 22:31:52;;;;;;;13.13;5.40;;;;;;;;;;5007950;28;20205;-92
2024/02/14 22:34:58;;;;;;;18.38;5.80;;;;;;;;;;5008403;28;20228;-91
2024/02/14 22:38:08;;;;;;;16.95;6.70;;;;;;;;;;5008324;28;20193;-92
2024/02/14 22:41:14;;;;;;;13.45;6.90;;;;;;;;;;4988779;28;20198;-92
2024/02/14 22:44:20;;;;;;;15.25;7.15;;;;;;;;;;5006111;28;20221;-89
2024/02/14 22:47:26;;;;;;;13.60;6.30;;;;;;;;;;5006924;28;20189;-92
2024/02/14 22:50:31;;;;;;;14.18;6.72;;;;;;;;;;5008001;28;20253;-93
2024/02/14 22:53:37;;;;;;;11.77;5.40;;;;;;;;;;5007306;28;20268;-89
2024/02/14 22:56:42;;;;;;;12.52;5.85;;;;;;;;;;5008191;28;20232;-92
2024/02/14 22:59:49;;;;;;;12.05;6.25;;;;;;;;;;5007897;28;20213;-89
2024/02/14 23:02:55;;;;;;;17.20;6.13;;;;;;;;;;4990985;28;20190;-90
2024/02/14 23:06:01;;;;;;;15.52;5.95;;;;;;;;;;4997936;28;20589;-91
2024/02/14 23:09:09;;;;;;;19.13;6.65;;;;;;;;;;5009257;28;20715;-89
2024/02/14 23:12:15;;;;;;;17.15;6.97;;;;;;;;;;5007778;28;20743;-91
2024/02/14 23:15:21;;;;;;;19.60;7.13;;;;;;;;;;5008234;28;20336;-91
2024/02/14 23:18:27;;;;;;;17.55;7.28;;;;;;;;;;5008162;28;20212;-89
2024/02/14 23:21:32;;;;;;;15.35;6.50;;;;;;;;;;5008392;28;20720;-92
2024/02/14 23:24:38;;;;;;;19.40;7.05;;;;;;;;;;5009103;28;20249;-89
2024/02/14 23:27:45;;;;;;;14.02;5.70;;;;;;;;;;5008189;28;20716;-90
2024/02/14 23:30:51;;;;;;;10.23;4.97;;;;;;;;;;5008456;28;20209;-91
2024/02/14 23:33:57;;;;;;;11.30;4.93;;;;;;;;;;5008396;28;20208;-90
2024/02/14 23:37:04;;;;;;;12.13;5.60;;;;;;;;;;5011126;28;20304;-91
2024/02/14 23:40:10;;;;;;;13.13;5.55;;;;;;;;;;5010409;28;20260;-92
2024/02/14 23:43:15;;;;;;;10.75;4.95;;;;;;;;;;5008619;28;20200;-91
2024/02/14 23:46:21;;;;;;;10.63;5.20;;;;;;;;;;5010555;28;20192;-90
2024/02/14 23:49:27;;;;;;;14.77;5.70;;;;;;;;;;5027893;28;20200;-90
2024/02/14 23:52:33;;;;;;;10.82;5.30;;;;;;;;;;5028754;28;20184;-92
2024/02/14 23:55:40;;;;;;;17.65;5.38;;;;;;;;;;5013799;28;20340;-90
2024/02/14 23:58:45;;;;;;;16.15;5.57;;;;;;;;;;5008278;28;20209;-93
